Terminal Aerodrome Forecast
Issued by NWS Greer, SC

Home | Current Version | Previous Version | Graphics & Text | Print | Product List | Glossary On
Versions: 1 2 3 4 5 6 7 8 9 10 11 12 13 14 15 16 17 18 19 20 21 22 23 24 25 26 27 28 29
000
FTUS42 KGSP 111913 AAA
TAFAVL
TAF AMD
KAVL 111913Z 1119/1218 34010KT P6SM SCT045
      TEMPO 1119/1123 35015G22KT
     FM120100 34005KT P6SM SCT200
     FM120600 VRB03KT P6SM BKN070
     FM121000 VRB03KT 6SM -SN BR SCT030 BKN060
     FM121500 VRB03KT 6SM -SN BR BKN040=

USA.gov is the U.S. government's official web portal to all federal, state and local government web resources and services.